Yeowardville, Illinois
Current Conditions -  °F | °C
As of 8:35 PM on Friday 24 Oct 2014 (Local Time) from KSQI Reporting Station
Overcast Overcast  
Wind Chill: 61°   Ceiling: 3300
Heat Index: 61°   Visibility: 10mi
Dew Point: 46°   Wind: 0mph
Humidity: 59%   Direction: NA
Pressure: 29.95"   Gusts: NA
Location:  41.7267°N, 89.7066°W
Report Text: KSQI 250135Z AUTO 00000KT 10SM OVC033 16/08 A2995 RMK AO1
Loading
Personal Weather Stations






























Interactive Weather Map
Tropical Storm Tracking
New forecast layout! Learn more

10-Day Weather Forecast

Advertisements
Track Severe Weather on mobile